Estación de Purranque

Ultimos registro cada 15 minutos 92
Estación Fecha / Hora Temperatura Humedad Lluvia Velocidad Dirección Radiación Presion
92 Purranque 03-09-2026 22:45 4,8 97,3 0 0 291 0,6 1016,8
91 Purranque 03-09-2026 22:30 5 98,3 0 0,3 291 0,6 1016,8
90 Purranque 03-09-2026 22:15 4,5 99,2 0 0 258 0,6 1016,8
89 Purranque 03-09-2026 22:00 3,4 98,5 0 0 251 0,6 1016,9
88 Purranque 03-09-2026 21:45 3,8 98,1 0 0 251 0,6 1017
87 Purranque 03-09-2026 21:30 4 98 0 0 251 0,6 1016,9
86 Purranque 03-09-2026 21:15 4 97,8 0 0 251 0,6 1016,8
85 Purranque 03-09-2026 21:00 4,2 93,7 0 0 251 0,6 1016,8
84 Purranque 03-09-2026 20:45 5,5 91,6 0 0 246 0,6 1016,8
83 Purranque 03-09-2026 20:30 5,8 90,9 0 0,7 239 0,6 1016,8
82 Purranque 03-09-2026 20:15 6,2 90,1 0 0,7 236 0,6 1016,8
81 Purranque 03-09-2026 20:00 6,8 90 0 1,3 241 0,6 1016,7
80 Purranque 03-09-2026 19:45 6,9 95,3 0 0 226 0,6 1016,6
79 Purranque 03-09-2026 19:30 7,1 95,3 0 0 190 0,6 1016,4
78 Purranque 03-09-2026 19:15 7,2 95,1 0,2 0,3 190 0,6 1016,3
77 Purranque 03-09-2026 19:00 7,2 94 0 0,7 233 0,6 1016,2
76 Purranque 03-09-2026 18:45 7,3 93,9 0 0,7 300 0,6 1016,1
75 Purranque 03-09-2026 18:30 7,6 94,9 0 0,7 338 1,9 1016,1
74 Purranque 03-09-2026 18:15 7,7 93,9 0 0 41 8,1 1015,9
73 Purranque 03-09-2026 18:00 7,7 92,3 0,2 0,3 70 26,9 1015,9
72 Purranque 03-09-2026 17:45 8 92,5 0 0,3 124 34,4 1015,8
71 Purranque 03-09-2026 17:30 8 87,9 0 0,3 146 35,6 1015,7
70 Purranque 03-09-2026 17:15 8 88,2 0,2 1 181 44,4 1015,8
69 Purranque 03-09-2026 17:00 8,5 85,8 0 1 218 24,4 1015,8
68 Purranque 03-09-2026 16:45 9,2 75,8 0 0,7 334 34,4 1015,7
67 Purranque 03-09-2026 16:30 10,1 73,4 0 0,7 20 133,1 1015,7
66 Purranque 03-09-2026 16:15 11 71,3 0 0,7 153 205,6 1015,6
65 Purranque 03-09-2026 16:00 10,7 77,5 0 0,7 152 404,4 1015,7
64 Purranque 03-09-2026 15:45 10,5 76,8 0 1 206 508,1 1015,6
63 Purranque 03-09-2026 15:30 8,9 82,3 0 1,3 215 150,6 1015,6
62 Purranque 03-09-2026 15:15 9,2 80,7 0 1,3 191 81,9 1015,5
61 Purranque 03-09-2026 15:00 9,5 77,6 0 2 187 188,1 1015,4
60 Purranque 03-09-2026 14:45 9,9 77,2 0 1,7 234 194,4 1015,4
59 Purranque 03-09-2026 14:30 10,2 71 0 1,3 246 311,9 1015,5
58 Purranque 03-09-2026 14:15 10,5 70,8 0 1 239 213,1 1015,7
57 Purranque 03-09-2026 14:00 10,5 69,9 0 1 320 316,9 1015,8
56 Purranque 03-09-2026 13:45 11,6 64,9 0 0,7 329 568,1 1016
55 Purranque 03-09-2026 13:30 9,6 73,7 0 1 285 264,4 1016,2
54 Purranque 03-09-2026 13:15 11,1 72,3 0 1 323 935,6 1016,2
53 Purranque 03-09-2026 13:00 10,5 78,7 0 0,7 81 798,1 1016,3
52 Purranque 03-09-2026 12:45 8,6 81,1 0 0,7 126 185,6 1016,5
51 Purranque 03-09-2026 12:30 8,6 77,8 0 1 180 191,9 1016,6
50 Purranque 03-09-2026 12:15 8,9 77,2 0 1 289 400,6 1016,6
49 Purranque 03-09-2026 12:00 8,7 79,4 0 0,7 250 235,6 1016,6
48 Purranque 03-09-2026 11:45 8,9 74,1 0 0,7 229 389,4 1016,4
47 Purranque 03-09-2026 11:30 8,2 74,3 0 1,3 279 301,9 1016,4
46 Purranque 03-09-2026 11:15 8,3 80,9 0 2 212 334,4 1016,4
45 Purranque 03-09-2026 11:00 8,4 79,9 0 1,7 213 373,1 1016,3
44 Purranque 03-09-2026 10:45 8,9 80,9 0 1 254 506,9 1016,3
43 Purranque 03-09-2026 10:30 7,8 84 0 1,3 240 283,1 1016,3
42 Purranque 03-09-2026 10:15 7,4 85,5 0 1 250 344,4 1016,2
41 Purranque 03-09-2026 10:00 7,1 87 0 1 261 290,6 1016,2
40 Purranque 03-09-2026 09:45 6,9 88,9 0 0,7 286 233,1 1016,1
39 Purranque 03-09-2026 09:30 6,5 91,4 0 0,3 319 215,6 1015,8
38 Purranque 03-09-2026 09:15 6,1 92,2 0 0,7 306 196,9 1015,7
37 Purranque 03-09-2026 09:00 5,5 92,8 0 0,7 296 170,6 1015,5
36 Purranque 03-09-2026 08:45 5,1 94 0 0,7 334 144,4 1015,3
35 Purranque 03-09-2026 08:30 4,7 95,2 0 0,7 337 110,6 1015
34 Purranque 03-09-2026 08:15 4,2 95,2 0 0,7 343 83,1 1014,6
33 Purranque 03-09-2026 08:00 4 96,3 0 0 275 65,6 1014,4
32 Purranque 03-09-2026 07:45 3,5 97,7 0 0 275 36,9 1014,2
31 Purranque 03-09-2026 07:30 2,8 97 0 0 275 14,4 1014,2
30 Purranque 03-09-2026 07:15 3 97 0 0 275 1,9 1014,1
29 Purranque 03-09-2026 07:00 2,8 97,1 0 0 275 0,6 1014
28 Purranque 03-09-2026 06:45 3,3 97,4 0 0 275 0,6 1013,8
27 Purranque 03-09-2026 06:30 3,2 98,5 0 0 275 0,6 1013,6
26 Purranque 03-09-2026 06:15 2,4 98,9 0 0 275 0,6 1013,5
25 Purranque 03-09-2026 06:00 2,4 99 0 0 275 0,6 1013,4
24 Purranque 03-09-2026 05:45 2,4 99,1 0 0 275 0,6 1013,2
23 Purranque 03-09-2026 05:30 1,8 99,2 0 0 275 0,6 1013
22 Purranque 03-09-2026 05:15 2 99,3 0 0 275 0,6 1012,8
21 Purranque 03-09-2026 05:00 1,5 99,2 0 0 275 0,6 1012,7
20 Purranque 03-09-2026 04:45 1,3 99,1 0 0 275 0,6 1012,4
19 Purranque 03-09-2026 04:30 1,3 99 0 0 275 0,6 1012,2
18 Purranque 03-09-2026 04:15 0,8 99,1 0 0 275 0,6 1012
17 Purranque 03-09-2026 04:00 0,7 99 0 0 275 0,6 1011,8
16 Purranque 03-09-2026 03:45 0,5 98,9 0 0 229 0,6 1011,8
15 Purranque 03-09-2026 03:30 -0,5 98,5 0 0 229 0,6 1011,6
14 Purranque 03-09-2026 03:15 -0,4 97,6 0 0 229 0,6 1011,5
13 Purranque 03-09-2026 03:00 0,1 96,9 0 0 229 0,6 1011,4
12 Purranque 03-09-2026 02:45 0,2 95,4 0 0 230 0,6 1011,5
11 Purranque 03-09-2026 02:30 1,2 92,1 0 0 254 0,6 1011,5
10 Purranque 03-09-2026 02:15 2,5 87,5 0 0,3 256 0,6 1011,4
9 Purranque 03-09-2026 02:00 3,1 87,1 0 0,7 263 0,6 1011,1
8 Purranque 03-09-2026 01:45 2,9 88,7 0 0,3 267 0,6 1011
7 Purranque 03-09-2026 01:30 2,1 91,7 0 0,3 285 0,6 1010,9
6 Purranque 03-09-2026 01:15 2,3 91,5 0 0,3 282 0,6 1010,7
5 Purranque 03-09-2026 01:00 2,6 89,3 0 0,3 263 0,6 1010,6
4 Purranque 03-09-2026 00:45 3,5 87,2 0 0,3 256 0,6 1010,6
3 Purranque 03-09-2026 00:30 3,8 86 0 0,7 254 0,6 1010,6
2 Purranque 03-09-2026 00:15 4,1 84,4 0,2 0,7 254 0,6 1010,5
1 Purranque 03-09-2026 00:00 4,8 83,2 0 1 251 0,6 1010,5